Nyala, Nevada Weather observations

Data are for observation ending at time listed.
 Day   Time    Ave.   Ave.  Ave.  Vector   Max.   Stn.    Total    Solar   Ave.  
  of    of     Air    Rel.  Wind   Wind    Wind   Baro.  Precip.   Rad.    Soil  
Year   Day     Temp.  Hum.  Speed  Dir.    Gust   Pres.                    Temp. 
2015   (PST)    F      %     mph   deg.    mph     mb.     in.     W/m2     F   
------------------------------------------------------------------------------
 185   21:00   71.4    42    6.1   181     10.4    852     0.00       0    86.3
 185   22:00   71.4    46    6.2   178     11.6    853     0.00       0    85.2
 185   23:00   70.8    45    4.2   148      8.5    853     0.00       0    84.1
 186    0:00   68.2    46    3.1   159      7.1    853     0.00       0    83.2
 186    1:00   63.6    53    2.0    85      4.5    853     0.00       0    82.3
 186    2:00   62.4    54    2.3   154      5.2    852     0.00       0    81.3
 186    3:00   59.8    59    1.7   169      5.0    852     0.00       0    80.3
 186    4:00   60.4    56    2.1   163      5.4    853     0.00       0    79.4
 186    5:00   61.5    50    1.2    95      3.6    853     0.00       3    78.6
 186    6:00   66.4    46    0.9   169      3.3    854     0.00      58    77.8
 186    7:00   71.4    41    3.1   246      7.3    854     0.00     140    77.5
 186    8:00   75.9    35    1.5   249      6.1    854     0.00     208    77.8
 186    9:00   81.0    28    1.7   273      6.6    854     0.00     301    78.6
 186   10:00   85.8    23    2.1   231      9.7    854     0.00     365    79.5
 186   11:00   88.2    20    4.2   244     14.7    853     0.00     410    80.6
 186   12:00   91.5    17    5.7   214     15.3    853     0.00     434    82.1
 186   13:00   93.3    15    5.9   224     18.7    852     0.00     444    83.8
 186   14:00   92.6    15    5.3   229     17.0    851     0.00     324    86.8
 186   15:00   94.9    13    5.6   226     15.7    850     0.00     357    90.0
 186   16:00   94.4    11    8.0   238     21.7    850     0.00     283    92.8
 186   17:00   93.7    12    4.6   224     16.2    850     0.00     169    94.8
 186   18:00   90.0    16    6.0   226     20.4    849     0.00      75    96.0
 186   19:00   86.5    18    9.3   191     29.7    850     0.00      10    95.9
 186   20:00   80.3    24   22.1   182     36.2    851     0.00       0    94.6

Return to Nyala, Nevada graphs page.


Western Regional Climate Center,wrcc@dri.edu